MSR14 OEJN-HECA
Flight info
| Callsign | MSR14 |
|---|---|
| Flight time | N/A |
| Altitude | 36000 |
| Route | MIGDA L677 CVO |
| Aircraft | B738/M-SDE2E3FGHIRWXY/LB1 |
Departure
| Time | N/A |
|---|---|
| Airport | King Abdulaziz International Airport (OEJN) |
Arrival
| Time | 2026-05-06 11:14 |
|---|---|
| Airport | Cairo International Airport (HECA) |
| Time | Latitude | Longitude | Altitude | Speed | Heading |
|---|---|---|---|---|---|
| 2026-05-06 10:28 | 27.60689 | 34.82843 | 37993 ft | 425 kts | 309° |
| 2026-05-06 10:28 | 27.62855 | 34.80577 | 37992 ft | 425 kts | 309° |
| 2026-05-06 10:29 | 27.65751 | 34.77528 | 37994 ft | 424 kts | 309° |
| 2026-05-06 10:29 | 27.70050 | 34.72977 | 37996 ft | 424 kts | 309° |
| 2026-05-06 10:30 | 27.74343 | 34.68422 | 38001 ft | 423 kts | 309° |
| 2026-05-06 10:30 | 27.77933 | 34.64608 | 38009 ft | 423 kts | 309° |
| 2026-05-06 10:31 | 27.82215 | 34.60055 | 38019 ft | 422 kts | 309° |
| 2026-05-06 10:31 | 27.86484 | 34.55511 | 38036 ft | 421 kts | 309° |
| 2026-05-06 10:32 | 27.90748 | 34.50966 | 38045 ft | 421 kts | 309° |
| 2026-05-06 10:32 | 27.94999 | 34.46431 | 38051 ft | 420 kts | 309° |
| 2026-05-06 10:33 | 27.99213 | 34.41928 | 38050 ft | 419 kts | 308° |
| 2026-05-06 10:33 | 28.02978 | 34.37028 | 38048 ft | 411 kts | 302° |
| 2026-05-06 10:34 | 28.06565 | 34.32012 | 38044 ft | 410 kts | 302° |
| 2026-05-06 10:34 | 28.10160 | 34.27003 | 38045 ft | 410 kts | 302° |
| 2026-05-06 10:35 | 28.13766 | 34.21990 | 38032 ft | 411 kts | 302° |
| 2026-05-06 10:35 | 28.17378 | 34.16980 | 38013 ft | 411 kts | 302° |
| 2026-05-06 10:36 | 28.20987 | 34.11960 | 38029 ft | 411 kts | 302° |
| 2026-05-06 10:36 | 28.24605 | 34.06929 | 38040 ft | 413 kts | 302° |
| 2026-05-06 10:37 | 28.28233 | 34.01877 | 38028 ft | 413 kts | 302° |
| 2026-05-06 10:37 | 28.31866 | 33.96815 | 38027 ft | 413 kts | 302° |
| 2026-05-06 10:38 | 28.35495 | 33.91751 | 38016 ft | 414 kts | 302° |
| 2026-05-06 10:38 | 28.39128 | 33.86674 | 38022 ft | 414 kts | 302° |
| 2026-05-06 10:39 | 28.42750 | 33.81607 | 38028 ft | 413 kts | 302° |
| 2026-05-06 10:39 | 28.46362 | 33.76549 | 38016 ft | 411 kts | 302° |
| 2026-05-06 10:40 | 28.49950 | 33.71519 | 38041 ft | 408 kts | 302° |
| 2026-05-06 10:40 | 28.53515 | 33.66513 | 38035 ft | 407 kts | 302° |
| 2026-05-06 10:41 | 28.57065 | 33.61519 | 38041 ft | 405 kts | 302° |
| 2026-05-06 10:41 | 28.60604 | 33.56539 | 38027 ft | 404 kts | 302° |
| 2026-05-06 10:42 | 28.64135 | 33.51564 | 38035 ft | 404 kts | 302° |
| 2026-05-06 10:42 | 28.67664 | 33.46594 | 38030 ft | 403 kts | 302° |
| 2026-05-06 10:43 | 28.71161 | 33.41662 | 38028 ft | 403 kts | 302° |
| 2026-05-06 10:44 | 28.76428 | 33.34221 | 38039 ft | 401 kts | 302° |
| 2026-05-06 10:44 | 28.79928 | 33.29268 | 38037 ft | 401 kts | 302° |
| 2026-05-06 10:45 | 28.83421 | 33.24318 | 38037 ft | 401 kts | 302° |
| 2026-05-06 10:45 | 28.86918 | 33.19358 | 38042 ft | 401 kts | 302° |
| 2026-05-06 10:46 | 28.90411 | 33.14398 | 38037 ft | 401 kts | 302° |
| 2026-05-06 10:46 | 28.93897 | 33.09441 | 37999 ft | 401 kts | 302° |
| 2026-05-06 10:46 | 28.95658 | 33.06931 | 37521 ft | 405 kts | 302° |
| 2026-05-06 10:47 | 28.97415 | 33.04430 | 36941 ft | 403 kts | 302° |
| 2026-05-06 10:47 | 28.99164 | 33.01941 | 36379 ft | 401 kts | 302° |
| 2026-05-06 10:47 | 29.00906 | 32.99458 | 35780 ft | 401 kts | 302° |
| 2026-05-06 10:47 | 29.02649 | 32.96972 | 35250 ft | 399 kts | 302° |
| 2026-05-06 10:48 | 29.04377 | 32.94509 | 34800 ft | 396 kts | 302° |
| 2026-05-06 10:48 | 29.06090 | 32.92064 | 34368 ft | 392 kts | 302° |
| 2026-05-06 10:48 | 29.07788 | 32.89638 | 33911 ft | 389 kts | 302° |
| 2026-05-06 10:48 | 29.09472 | 32.87230 | 33424 ft | 386 kts | 302° |
| 2026-05-06 10:49 | 29.11142 | 32.84842 | 32964 ft | 382 kts | 302° |
| 2026-05-06 10:49 | 29.12795 | 32.82475 | 32542 ft | 378 kts | 302° |
| 2026-05-06 10:49 | 29.14429 | 32.80135 | 32122 ft | 374 kts | 302° |
| 2026-05-06 10:49 | 29.16044 | 32.77820 | 31698 ft | 371 kts | 303° |
| 2026-05-06 10:50 | 29.17640 | 32.75530 | 31296 ft | 367 kts | 303° |
| 2026-05-06 10:50 | 29.19207 | 32.73281 | 30904 ft | 364 kts | 303° |
| 2026-05-06 10:50 | 29.20775 | 32.71029 | 30505 ft | 361 kts | 303° |
| 2026-05-06 10:50 | 29.22333 | 32.68790 | 30101 ft | 357 kts | 303° |
| 2026-05-06 10:51 | 29.23874 | 32.66573 | 29648 ft | 354 kts | 303° |
| 2026-05-06 10:51 | 29.25398 | 32.64384 | 29242 ft | 349 kts | 303° |
| 2026-05-06 10:51 | 29.26897 | 32.62227 | 28842 ft | 344 kts | 303° |
| 2026-05-06 10:51 | 29.28379 | 32.60095 | 28440 ft | 340 kts | 303° |
| 2026-05-06 10:52 | 29.29837 | 32.57983 | 28062 ft | 336 kts | 303° |
| 2026-05-06 10:52 | 29.31277 | 32.55887 | 27657 ft | 333 kts | 303° |
| 2026-05-06 10:52 | 29.32698 | 32.53817 | 27268 ft | 329 kts | 303° |
| 2026-05-06 10:52 | 29.34108 | 32.51761 | 26886 ft | 326 kts | 303° |
| 2026-05-06 10:53 | 29.35501 | 32.49726 | 26509 ft | 324 kts | 302° |
| 2026-05-06 10:53 | 29.36887 | 32.47702 | 26123 ft | 322 kts | 303° |
| 2026-05-06 10:53 | 29.38268 | 32.45685 | 25748 ft | 320 kts | 303° |
| 2026-05-06 10:53 | 29.39634 | 32.43690 | 25384 ft | 317 kts | 303° |
| 2026-05-06 10:54 | 29.40990 | 32.41708 | 25012 ft | 315 kts | 303° |
| 2026-05-06 10:54 | 29.42334 | 32.39744 | 24654 ft | 312 kts | 303° |
| 2026-05-06 10:54 | 29.43670 | 32.37789 | 24297 ft | 310 kts | 303° |
| 2026-05-06 10:54 | 29.44994 | 32.35851 | 23939 ft | 307 kts | 303° |
| 2026-05-06 10:55 | 29.46308 | 32.33927 | 23576 ft | 305 kts | 303° |
| 2026-05-06 10:55 | 29.47613 | 32.32015 | 23158 ft | 303 kts | 303° |
| 2026-05-06 10:55 | 29.48909 | 32.30115 | 22806 ft | 302 kts | 303° |
| 2026-05-06 10:55 | 29.50201 | 32.28221 | 22440 ft | 301 kts | 303° |
| 2026-05-06 10:56 | 29.51495 | 32.26322 | 22078 ft | 305 kts | 303° |
| 2026-05-06 10:56 | 29.52820 | 32.24371 | 21711 ft | 315 kts | 304° |
| 2026-05-06 10:56 | 29.54177 | 32.22378 | 21326 ft | 316 kts | 304° |
| 2026-05-06 10:56 | 29.55523 | 32.20403 | 20943 ft | 313 kts | 304° |
| 2026-05-06 10:57 | 29.56841 | 32.18467 | 20574 ft | 310 kts | 304° |
| 2026-05-06 10:57 | 29.58163 | 32.16526 | 20207 ft | 308 kts | 304° |
| 2026-05-06 10:57 | 29.59476 | 32.14595 | 19838 ft | 305 kts | 304° |
| 2026-05-06 10:57 | 29.60792 | 32.12659 | 19477 ft | 303 kts | 304° |
| 2026-05-06 10:58 | 29.62087 | 32.10754 | 19113 ft | 301 kts | 304° |
| 2026-05-06 10:58 | 29.63371 | 32.08862 | 18760 ft | 299 kts | 304° |
| 2026-05-06 10:58 | 29.64646 | 32.06983 | 18402 ft | 298 kts | 304° |
| 2026-05-06 10:58 | 29.65917 | 32.05108 | 18000 ft | 296 kts | 304° |
| 2026-05-06 10:59 | 29.67162 | 32.03271 | 17619 ft | 294 kts | 304° |
| 2026-05-06 10:59 | 29.68414 | 32.01424 | 17270 ft | 291 kts | 304° |
| 2026-05-06 10:59 | 29.69672 | 31.99566 | 16892 ft | 289 kts | 304° |
| 2026-05-06 10:59 | 29.70885 | 31.97774 | 16564 ft | 287 kts | 304° |
| 2026-05-06 11:00 | 29.72128 | 31.95936 | 16208 ft | 286 kts | 305° |
| 2026-05-06 11:00 | 29.73343 | 31.94140 | 15860 ft | 284 kts | 305° |
| 2026-05-06 11:00 | 29.74535 | 31.92378 | 15533 ft | 282 kts | 305° |
| 2026-05-06 11:00 | 29.75739 | 31.90596 | 15196 ft | 281 kts | 305° |
| 2026-05-06 11:01 | 29.76932 | 31.88823 | 14854 ft | 279 kts | 303° |
| 2026-05-06 11:01 | 29.77776 | 31.86836 | 14511 ft | 276 kts | 287° |
| 2026-05-06 11:01 | 29.78134 | 31.84663 | 14281 ft | 277 kts | 274° |
| 2026-05-06 11:01 | 29.78056 | 31.82404 | 14065 ft | 288 kts | 268° |
| 2026-05-06 11:02 | 29.77877 | 31.80076 | 13834 ft | 296 kts | 267° |
| 2026-05-06 11:02 | 29.77678 | 31.77705 | 13578 ft | 298 kts | 267° |
| 2026-05-06 11:02 | 29.77480 | 31.75336 | 13301 ft | 297 kts | 267° |
| 2026-05-06 11:02 | 29.77287 | 31.72982 | 13044 ft | 294 kts | 267° |
| 2026-05-06 11:03 | 29.77100 | 31.70641 | 12786 ft | 293 kts | 267° |
| 2026-05-06 11:03 | 29.76918 | 31.68310 | 12525 ft | 292 kts | 268° |
| 2026-05-06 11:03 | 29.76738 | 31.65989 | 12280 ft | 291 kts | 268° |
| 2026-05-06 11:03 | 29.76559 | 31.63667 | 12028 ft | 291 kts | 268° |
| 2026-05-06 11:04 | 29.76381 | 31.61345 | 11781 ft | 292 kts | 268° |
| 2026-05-06 11:04 | 29.76202 | 31.59013 | 11537 ft | 293 kts | 268° |
| 2026-05-06 11:04 | 29.76023 | 31.56670 | 11288 ft | 294 kts | 268° |
| 2026-05-06 11:04 | 29.75842 | 31.54319 | 11044 ft | 295 kts | 268° |
| 2026-05-06 11:05 | 29.75661 | 31.51966 | 10800 ft | 296 kts | 267° |
| 2026-05-06 11:05 | 29.75479 | 31.49605 | 10539 ft | 296 kts | 268° |
| 2026-05-06 11:05 | 29.75298 | 31.47278 | 10365 ft | 288 kts | 268° |
| 2026-05-06 11:05 | 29.75122 | 31.45011 | 10197 ft | 281 kts | 268° |
| 2026-05-06 11:06 | 29.74950 | 31.42786 | 9855 ft | 280 kts | 268° |
| 2026-05-06 11:06 | 29.74776 | 31.40534 | 9285 ft | 287 kts | 268° |
| 2026-05-06 11:06 | 29.74597 | 31.38206 | 8648 ft | 295 kts | 267° |
| 2026-05-06 11:06 | 29.74415 | 31.35903 | 8576 ft | 283 kts | 267° |
| 2026-05-06 11:07 | 29.74239 | 31.33683 | 8493 ft | 272 kts | 267° |
| 2026-05-06 11:07 | 29.74369 | 31.31579 | 8381 ft | 260 kts | 289° |
| 2026-05-06 11:07 | 29.75248 | 31.29806 | 8123 ft | 256 kts | 312° |
| 2026-05-06 11:07 | 29.76628 | 31.28538 | 7828 ft | 256 kts | 332° |
| 2026-05-06 11:08 | 29.78308 | 31.27862 | 7576 ft | 256 kts | 343° |
| 2026-05-06 11:08 | 29.80024 | 31.27371 | 7370 ft | 253 kts | 345° |
| 2026-05-06 11:08 | 29.81742 | 31.26896 | 7021 ft | 257 kts | 345° |
| 2026-05-06 11:08 | 29.83495 | 31.26407 | 6625 ft | 262 kts | 345° |
| 2026-05-06 11:09 | 29.85286 | 31.25901 | 6185 ft | 267 kts | 345° |
| 2026-05-06 11:09 | 29.87100 | 31.25386 | 5758 ft | 270 kts | 344° |
| 2026-05-06 11:09 | 29.88931 | 31.24861 | 5313 ft | 273 kts | 344° |
| 2026-05-06 11:09 | 29.90755 | 31.24339 | 4895 ft | 268 kts | 344° |
| 2026-05-06 11:10 | 29.92549 | 31.23824 | 4468 ft | 264 kts | 344° |
| 2026-05-06 11:10 | 29.94298 | 31.23322 | 4009 ft | 261 kts | 343° |
| 2026-05-06 11:10 | 29.96111 | 31.23112 | 3565 ft | 261 kts | 7° |
| 2026-05-06 11:10 | 29.97736 | 31.24013 | 3162 ft | 264 kts | 37° |
| 2026-05-06 11:11 | 29.99085 | 31.25397 | 2749 ft | 263 kts | 40° |
| 2026-05-06 11:11 | 30.00341 | 31.26900 | 2503 ft | 255 kts | 45° |
| 2026-05-06 11:11 | 30.01496 | 31.28448 | 2495 ft | 256 kts | 46° |
| 2026-05-06 11:11 | 30.02626 | 31.29986 | 2471 ft | 241 kts | 46° |
| 2026-05-06 11:12 | 30.03677 | 31.31396 | 2276 ft | 227 kts | 46° |
| 2026-05-06 11:12 | 30.04686 | 31.32745 | 2004 ft | 216 kts | 46° |
| 2026-05-06 11:12 | 30.05646 | 31.34034 | 1706 ft | 208 kts | 45° |
| 2026-05-06 11:12 | 30.06557 | 31.35255 | 1429 ft | 193 kts | 47° |
| 2026-05-06 11:13 | 30.07398 | 31.36380 | 1178 ft | 176 kts | 45° |
| 2026-05-06 11:13 | 30.08147 | 31.37386 | 1003 ft | 152 kts | 46° |
| 2026-05-06 11:13 | 30.08814 | 31.38277 | 735 ft | 139 kts | 46° |
| 2026-05-06 11:13 | 30.09421 | 31.39089 | 612 ft | 137 kts | 47° |
| 2026-05-06 11:14 | 30.10054 | 31.39937 | 416 ft | 141 kts | 46° |
| 2026-05-06 11:14 | 30.10636 | 31.40714 | 386 ft | 102 kts | 50° |
| 2026-05-06 11:14 | 30.10958 | 31.41147 | 385 ft | 53 kts | 50° |
| 2026-05-06 11:14 | 30.11156 | 31.41406 | 385 ft | 34 kts | 50° |
| 2026-05-06 11:15 | 30.11266 | 31.41534 | 384 ft | 20 kts | 32° |
| 2026-05-06 11:15 | 30.11359 | 31.41580 | 381 ft | 9 kts | 20° |
| 2026-05-06 11:15 | 30.11385 | 31.41591 | 380 ft | 3 kts | 20° |
| 2026-05-06 11:15 | 30.11419 | 31.41606 | 379 ft | 8 kts | 20° |
| 2026-05-06 11:16 | 30.11486 | 31.41627 | 376 ft | 12 kts | 6° |
| 2026-05-06 11:16 | 30.11545 | 31.41615 | 371 ft | 10 kts | 331° |
| 2026-05-06 11:16 | 30.11547 | 31.41527 | 371 ft | 14 kts | 236° |
| 2026-05-06 11:16 | 30.11478 | 31.41435 | 368 ft | 16 kts | 228° |
| 2026-05-06 11:17 | 30.11410 | 31.41346 | 368 ft | 14 kts | 230° |
| 2026-05-06 11:17 | 30.11349 | 31.41263 | 369 ft | 13 kts | 228° |
| 2026-05-06 11:17 | 30.11291 | 31.41187 | 369 ft | 12 kts | 229° |
| 2026-05-06 11:17 | 30.11235 | 31.41112 | 369 ft | 13 kts | 229° |
| 2026-05-06 11:18 | 30.11185 | 31.41046 | 369 ft | 8 kts | 228° |
| 2026-05-06 11:18 | 30.11146 | 31.40994 | 369 ft | 9 kts | 232° |
| 2026-05-06 11:18 | 30.11100 | 31.40931 | 369 ft | 11 kts | 229° |
| 2026-05-06 11:18 | 30.11062 | 31.40850 | 368 ft | 13 kts | 274° |
| 2026-05-06 11:19 | 30.11083 | 31.40753 | 365 ft | 11 kts | 236° |
| 2026-05-06 11:19 | 30.11030 | 31.40680 | 363 ft | 13 kts | 229° |
| 2026-05-06 11:19 | 30.10969 | 31.40599 | 369 ft | 14 kts | 229° |
| 2026-05-06 11:19 | 30.10901 | 31.40509 | 363 ft | 15 kts | 229° |
| 2026-05-06 11:20 | 30.10829 | 31.40413 | 364 ft | 13 kts | 228° |
| 2026-05-06 11:20 | 30.10788 | 31.40359 | 365 ft | 14 kts | 229° |
| 2026-05-06 11:20 | 30.10722 | 31.40272 | 365 ft | 15 kts | 229° |
| 2026-05-06 11:20 | 30.10653 | 31.40181 | 364 ft | 10 kts | 229° |
| 2026-05-06 11:21 | 30.10602 | 31.40112 | 365 ft | 12 kts | 230° |
| 2026-05-06 11:21 | 30.10543 | 31.40034 | 366 ft | 14 kts | 229° |
| 2026-05-06 11:21 | 30.10491 | 31.39957 | 368 ft | 12 kts | 250° |
| 2026-05-06 11:21 | 30.10519 | 31.39862 | 360 ft | 15 kts | 333° |
| 2026-05-06 11:22 | 30.10630 | 31.39828 | 361 ft | 16 kts | 347° |
| 2026-05-06 11:22 | 30.10716 | 31.39802 | 356 ft | 14 kts | 345° |
| 2026-05-06 11:22 | 30.10805 | 31.39775 | 347 ft | 7 kts | 345° |
| 2026-05-06 11:22 | 30.10826 | 31.39757 | 339 ft | 3 kts | 285° |
| 2026-05-06 11:23 | 30.10820 | 31.39724 | 337 ft | 6 kts | 255° |
| 2026-05-06 11:23 | 30.10810 | 31.39685 | 338 ft | 3 kts | 255° |
| 2026-05-06 11:23 | 30.10808 | 31.39673 | 335 ft | 0 kts | 255° |